sensor_id;sensor_type;location;lat;lon;timestamp;P1;durP1;ratioP1;P2;durP2;ratioP2
8488;SDS011;4281;45.772;12.852;2022-09-01T00:00:41;3.37;;;2.40;;
8488;SDS011;4281;45.772;12.852;2022-09-01T00:03:15;3.03;;;2.40;;
8488;SDS011;4281;45.772;12.852;2022-09-01T00:05:44;2.90;;;2.60;;
8488;SDS011;4281;45.772;12.852;2022-09-01T00:08:15;2.80;;;2.30;;
8488;SDS011;4281;45.772;12.852;2022-09-01T00:10:44;2.80;;;2.50;;
8488;SDS011;4281;45.772;12.852;2022-09-01T00:13:12;3.40;;;2.53;;
8488;SDS011;4281;45.772;12.852;2022-09-01T00:15:43;2.33;;;2.20;;
8488;SDS011;4281;45.772;12.852;2022-09-01T00:18:11;3.30;;;2.80;;
8488;SDS011;4281;45.772;12.852;2022-09-01T00:20:41;3.00;;;2.70;;
8488;SDS011;4281;45.772;12.852;2022-09-01T00:23:09;3.17;;;2.43;;
8488;SDS011;4281;45.772;12.852;2022-09-01T00:25:38;3.13;;;2.87;;
8488;SDS011;4281;45.772;12.852;2022-09-01T00:28:06;2.87;;;2.67;;
8488;SDS011;4281;45.772;12.852;2022-09-01T00:33:06;3.03;;;2.83;;
8488;SDS011;4281;45.772;12.852;2022-09-01T00:35:35;4.77;;;3.30;;
8488;SDS011;4281;45.772;12.852;2022-09-01T00:38:03;3.77;;;3.40;;
8488;SDS011;4281;45.772;12.852;2022-09-01T00:40:32;3.70;;;3.03;;
8488;SDS011;4281;45.772;12.852;2022-09-01T00:43:09;6.00;;;3.53;;
8488;SDS011;4281;45.772;12.852;2022-09-01T00:45:39;3.77;;;3.47;;
8488;SDS011;4281;45.772;12.852;2022-09-01T00:48:09;4.03;;;3.40;;
8488;SDS011;4281;45.772;12.852;2022-09-01T00:50:40;3.50;;;3.20;;
8488;SDS011;4281;45.772;12.852;2022-09-01T00:53:14;3.33;;;2.97;;
8488;SDS011;4281;45.772;12.852;2022-09-01T00:55:43;5.27;;;3.60;;
8488;SDS011;4281;45.772;12.852;2022-09-01T00:58:11;6.23;;;3.70;;
8488;SDS011;4281;45.772;12.852;2022-09-01T01:00:45;3.93;;;3.23;;
8488;SDS011;4281;45.772;12.852;2022-09-01T01:03:18;4.67;;;3.40;;
8488;SDS011;4281;45.772;12.852;2022-09-01T01:05:48;5.60;;;3.50;;
8488;SDS011;4281;45.772;12.852;2022-09-01T01:08:20;4.37;;;3.60;;
8488;SDS011;4281;45.772;12.852;2022-09-01T01:10:59;6.00;;;3.40;;
8488;SDS011;4281;45.772;12.852;2022-09-01T01:13:28;3.80;;;3.40;;
8488;SDS011;4281;45.772;12.852;2022-09-01T01:16:02;4.00;;;3.43;;
8488;SDS011;4281;45.772;12.852;2022-09-01T01:18:38;4.20;;;3.40;;
8488;SDS011;4281;45.772;12.852;2022-09-01T01:21:10;4.47;;;3.70;;
8488;SDS011;4281;45.772;12.852;2022-09-01T01:24:03;4.40;;;3.40;;
8488;SDS011;4281;45.772;12.852;2022-09-01T01:26:37;4.20;;;3.50;;
8488;SDS011;4281;45.772;12.852;2022-09-01T01:29:06;3.70;;;3.40;;
8488;SDS011;4281;45.772;12.852;2022-09-01T01:31:35;3.37;;;3.10;;
8488;SDS011;4281;45.772;12.852;2022-09-01T01:34:04;5.80;;;3.50;;
8488;SDS011;4281;45.772;12.852;2022-09-01T01:36:34;3.83;;;3.10;;
8488;SDS011;4281;45.772;12.852;2022-09-01T01:39:05;3.43;;;3.13;;
8488;SDS011;4281;45.772;12.852;2022-09-01T01:41:38;3.50;;;3.20;;
8488;SDS011;4281;45.772;12.852;2022-09-01T01:44:11;3.40;;;3.10;;
8488;SDS011;4281;45.772;12.852;2022-09-01T01:46:41;3.77;;;2.90;;
8488;SDS011;4281;45.772;12.852;2022-09-01T01:49:12;3.10;;;2.80;;
8488;SDS011;4281;45.772;12.852;2022-09-01T01:51:45;2.67;;;2.47;;
8488;SDS011;4281;45.772;12.852;2022-09-01T01:54:15;2.30;;;2.10;;
8488;SDS011;4281;45.772;12.852;2022-09-01T01:56:46;2.70;;;2.50;;
8488;SDS011;4281;45.772;12.852;2022-09-01T01:59:15;2.13;;;1.83;;
8488;SDS011;4281;45.772;12.852;2022-09-01T02:01:45;2.30;;;1.60;;
8488;SDS011;4281;45.772;12.852;2022-09-01T02:04:17;1.70;;;1.60;;
8488;SDS011;4281;45.772;12.852;2022-09-01T02:06:47;1.83;;;1.50;;
8488;SDS011;4281;45.772;12.852;2022-09-01T02:09:19;1.50;;;1.40;;
8488;SDS011;4281;45.772;12.852;2022-09-01T02:11:50;1.47;;;1.37;;
8488;SDS011;4281;45.772;12.852;2022-09-01T02:14:22;1.30;;;1.20;;
8488;SDS011;4281;45.772;12.852;2022-09-01T02:16:51;1.40;;;1.30;;
8488;SDS011;4281;45.772;12.852;2022-09-01T02:19:21;1.37;;;1.27;;
8488;SDS011;4281;45.772;12.852;2022-09-01T02:21:50;1.27;;;1.27;;
8488;SDS011;4281;45.772;12.852;2022-09-01T02:24:21;1.50;;;1.40;;
8488;SDS011;4281;45.772;12.852;2022-09-01T02:26:53;1.20;;;1.10;;
8488;SDS011;4281;45.772;12.852;2022-09-01T02:29:22;1.10;;;1.10;;
8488;SDS011;4281;45.772;12.852;2022-09-01T02:31:54;1.00;;;1.00;;
8488;SDS011;4281;45.772;12.852;2022-09-01T02:34:24;1.33;;;1.23;;
8488;SDS011;4281;45.772;12.852;2022-09-01T02:36:55;0.90;;;0.90;;
8488;SDS011;4281;45.772;12.852;2022-09-01T02:39:25;1.20;;;1.10;;
8488;SDS011;4281;45.772;12.852;2022-09-01T02:41:56;1.80;;;0.97;;
8488;SDS011;4281;45.772;12.852;2022-09-01T02:44:26;1.07;;;0.97;;
8488;SDS011;4281;45.772;12.852;2022-09-01T02:46:56;1.20;;;1.10;;
8488;SDS011;4281;45.772;12.852;2022-09-01T02:49:27;1.20;;;1.10;;
8488;SDS011;4281;45.772;12.852;2022-09-01T02:51:56;1.30;;;1.20;;
8488;SDS011;4281;45.772;12.852;2022-09-01T02:54:27;1.00;;;1.00;;
8488;SDS011;4281;45.772;12.852;2022-09-01T02:56:58;1.30;;;1.10;;
8488;SDS011;4281;45.772;12.852;2022-09-01T02:59:27;1.73;;;1.10;;
8488;SDS011;4281;45.772;12.852;2022-09-01T03:01:56;1.57;;;0.97;;
8488;SDS011;4281;45.772;12.852;2022-09-01T03:04:24;1.50;;;1.00;;
8488;SDS011;4281;45.772;12.852;2022-09-01T03:06:54;1.63;;;0.90;;
8488;SDS011;4281;45.772;12.852;2022-09-01T03:09:24;0.90;;;0.90;;
8488;SDS011;4281;45.772;12.852;2022-09-01T03:11:53;1.00;;;1.00;;
8488;SDS011;4281;45.772;12.852;2022-09-01T03:14:23;1.23;;;0.90;;
8488;SDS011;4281;45.772;12.852;2022-09-01T03:16:52;1.33;;;1.13;;
8488;SDS011;4281;45.772;12.852;2022-09-01T03:19:20;1.57;;;1.17;;
8488;SDS011;4281;45.772;12.852;2022-09-01T03:21:49;1.20;;;1.10;;
8488;SDS011;4281;45.772;12.852;2022-09-01T03:24:17;0.83;;;0.83;;
8488;SDS011;4281;45.772;12.852;2022-09-01T03:26:49;1.13;;;1.07;;
8488;SDS011;4281;45.772;12.852;2022-09-01T03:29:17;1.33;;;1.23;;
8488;SDS011;4281;45.772;12.852;2022-09-01T03:31:48;1.57;;;1.20;;
8488;SDS011;4281;45.772;12.852;2022-09-01T03:34:16;1.00;;;1.00;;
8488;SDS011;4281;45.772;12.852;2022-09-01T03:36:49;0.97;;;0.97;;
8488;SDS011;4281;45.772;12.852;2022-09-01T03:39:18;1.10;;;1.10;;
8488;SDS011;4281;45.772;12.852;2022-09-01T03:41:46;1.20;;;1.10;;
8488;SDS011;4281;45.772;12.852;2022-09-01T03:44:15;1.20;;;1.10;;
8488;SDS011;4281;45.772;12.852;2022-09-01T03:46:43;3.53;;;1.30;;
8488;SDS011;4281;45.772;12.852;2022-09-01T03:49:13;1.30;;;1.10;;
8488;SDS011;4281;45.772;12.852;2022-09-01T03:51:49;1.10;;;1.10;;
8488;SDS011;4281;45.772;12.852;2022-09-01T03:54:19;1.43;;;1.20;;
8488;SDS011;4281;45.772;12.852;2022-09-01T03:56:50;1.30;;;1.20;;
8488;SDS011;4281;45.772;12.852;2022-09-01T03:59:21;1.00;;;1.00;;
8488;SDS011;4281;45.772;12.852;2022-09-01T04:01:50;1.07;;;1.07;;
8488;SDS011;4281;45.772;12.852;2022-09-01T04:04:20;2.07;;;1.10;;
8488;SDS011;4281;45.772;12.852;2022-09-01T04:06:48;1.43;;;1.33;;
8488;SDS011;4281;45.772;12.852;2022-09-01T04:09:17;1.43;;;1.33;;
8488;SDS011;4281;45.772;12.852;2022-09-01T04:11:46;1.20;;;1.10;;
8488;SDS011;4281;45.772;12.852;2022-09-01T04:14:18;1.50;;;1.40;;
8488;SDS011;4281;45.772;12.852;2022-09-01T04:16:47;1.10;;;1.10;;
8488;SDS011;4281;45.772;12.852;2022-09-01T04:19:34;1.40;;;1.30;;
8488;SDS011;4281;45.772;12.852;2022-09-01T04:22:05;2.07;;;1.30;;
8488;SDS011;4281;45.772;12.852;2022-09-01T04:24:39;1.27;;;1.20;;
8488;SDS011;4281;45.772;12.852;2022-09-01T04:27:12;1.20;;;1.10;;
8488;SDS011;4281;45.772;12.852;2022-09-01T04:29:44;1.10;;;1.00;;
8488;SDS011;4281;45.772;12.852;2022-09-01T04:32:13;1.73;;;1.33;;
8488;SDS011;4281;45.772;12.852;2022-09-01T04:34:43;2.37;;;1.37;;
8488;SDS011;4281;45.772;12.852;2022-09-01T04:37:13;1.30;;;1.03;;
8488;SDS011;4281;45.772;12.852;2022-09-01T04:39:47;1.57;;;1.43;;
8488;SDS011;4281;45.772;12.852;2022-09-01T04:42:21;1.33;;;1.23;;
8488;SDS011;4281;45.772;12.852;2022-09-01T04:44:51;1.40;;;1.30;;
8488;SDS011;4281;45.772;12.852;2022-09-01T04:47:23;1.13;;;1.13;;
8488;SDS011;4281;45.772;12.852;2022-09-01T04:50:03;1.40;;;1.30;;
8488;SDS011;4281;45.772;12.852;2022-09-01T04:52:40;1.33;;;1.17;;
8488;SDS011;4281;45.772;12.852;2022-09-01T04:55:09;1.97;;;1.30;;
8488;SDS011;4281;45.772;12.852;2022-09-01T04:57:43;1.30;;;1.20;;
8488;SDS011;4281;45.772;12.852;2022-09-01T05:00:16;1.40;;;1.30;;
8488;SDS011;4281;45.772;12.852;2022-09-01T05:02:50;3.87;;;1.40;;
8488;SDS011;4281;45.772;12.852;2022-09-01T05:07:56;1.27;;;1.17;;
8488;SDS011;4281;45.772;12.852;2022-09-01T05:10:24;1.40;;;1.30;;
8488;SDS011;4281;45.772;12.852;2022-09-01T05:12:55;1.57;;;1.37;;
8488;SDS011;4281;45.772;12.852;2022-09-01T05:15:24;1.30;;;1.20;;
8488;SDS011;4281;45.772;12.852;2022-09-01T05:17:52;1.30;;;1.20;;
8488;SDS011;4281;45.772;12.852;2022-09-01T05:20:20;2.03;;;1.10;;
8488;SDS011;4281;45.772;12.852;2022-09-01T05:22:49;1.30;;;1.20;;
8488;SDS011;4281;45.772;12.852;2022-09-01T05:25:22;1.10;;;1.00;;
8488;SDS011;4281;45.772;12.852;2022-09-01T05:27:51;2.03;;;1.20;;
8488;SDS011;4281;45.772;12.852;2022-09-01T05:30:22;1.37;;;1.10;;
8488;SDS011;4281;45.772;12.852;2022-09-01T05:32:54;1.00;;;1.00;;
8488;SDS011;4281;45.772;12.852;2022-09-01T05:35:22;2.20;;;1.00;;
8488;SDS011;4281;45.772;12.852;2022-09-01T05:37:58;1.40;;;1.30;;
8488;SDS011;4281;45.772;12.852;2022-09-01T05:40:28;1.40;;;1.20;;
8488;SDS011;4281;45.772;12.852;2022-09-01T05:42:57;1.30;;;1.20;;
8488;SDS011;4281;45.772;12.852;2022-09-01T05:45:26;2.50;;;1.20;;
8488;SDS011;4281;45.772;12.852;2022-09-01T05:48:15;1.30;;;1.20;;
8488;SDS011;4281;45.772;12.852;2022-09-01T05:50:49;1.87;;;1.20;;
8488;SDS011;4281;45.772;12.852;2022-09-01T05:53:21;1.30;;;1.20;;
8488;SDS011;4281;45.772;12.852;2022-09-01T05:55:53;1.70;;;1.20;;
8488;SDS011;4281;45.772;12.852;2022-09-01T05:58:23;1.20;;;1.10;;
8488;SDS011;4281;45.772;12.852;2022-09-01T06:01:16;1.20;;;1.10;;
8488;SDS011;4281;45.772;12.852;2022-09-01T06:03:48;1.90;;;1.20;;
8488;SDS011;4281;45.772;12.852;2022-09-01T06:06:20;1.20;;;1.10;;
8488;SDS011;4281;45.772;12.852;2022-09-01T06:08:50;1.83;;;1.20;;
8488;SDS011;4281;45.772;12.852;2022-09-01T06:11:25;1.03;;;1.00;;
8488;SDS011;4281;45.772;12.852;2022-09-01T06:13:58;1.07;;;0.97;;
8488;SDS011;4281;45.772;12.852;2022-09-01T06:16:28;1.20;;;1.10;;
8488;SDS011;4281;45.772;12.852;2022-09-01T06:18:57;1.73;;;1.20;;
8488;SDS011;4281;45.772;12.852;2022-09-01T06:21:26;1.60;;;1.10;;
8488;SDS011;4281;45.772;12.852;2022-09-01T06:23:55;1.20;;;1.10;;
8488;SDS011;4281;45.772;12.852;2022-09-01T06:26:27;1.87;;;0.97;;
8488;SDS011;4281;45.772;12.852;2022-09-01T06:28:58;2.03;;;1.10;;
8488;SDS011;4281;45.772;12.852;2022-09-01T06:31:31;1.07;;;1.00;;
8488;SDS011;4281;45.772;12.852;2022-09-01T06:34:05;1.10;;;0.97;;
8488;SDS011;4281;45.772;12.852;2022-09-01T06:36:35;1.00;;;0.80;;
8488;SDS011;4281;45.772;12.852;2022-09-01T06:39:06;1.33;;;0.80;;
8488;SDS011;4281;45.772;12.852;2022-09-01T06:41:40;2.60;;;1.03;;
8488;SDS011;4281;45.772;12.852;2022-09-01T06:44:13;1.07;;;0.87;;
8488;SDS011;4281;45.772;12.852;2022-09-01T06:46:48;0.90;;;0.90;;
8488;SDS011;4281;45.772;12.852;2022-09-01T06:49:17;0.97;;;0.90;;
8488;SDS011;4281;45.772;12.852;2022-09-01T06:51:47;1.80;;;0.90;;
8488;SDS011;4281;45.772;12.852;2022-09-01T06:54:18;1.07;;;0.70;;
8488;SDS011;4281;45.772;12.852;2022-09-01T06:56:48;1.23;;;0.90;;
8488;SDS011;4281;45.772;12.852;2022-09-01T06:59:19;1.23;;;0.73;;
8488;SDS011;4281;45.772;12.852;2022-09-01T07:01:47;0.70;;;0.70;;
8488;SDS011;4281;45.772;12.852;2022-09-01T07:04:17;1.83;;;0.70;;
8488;SDS011;4281;45.772;12.852;2022-09-01T07:06:46;0.80;;;0.80;;
8488;SDS011;4281;45.772;12.852;2022-09-01T07:09:26;0.80;;;0.80;;
8488;SDS011;4281;45.772;12.852;2022-09-01T07:12:16;1.67;;;0.90;;
8488;SDS011;4281;45.772;12.852;2022-09-01T07:14:53;1.70;;;0.70;;
8488;SDS011;4281;45.772;12.852;2022-09-01T07:17:44;0.70;;;0.70;;
8488;SDS011;4281;45.772;12.852;2022-09-01T07:20:15;2.43;;;0.93;;
8488;SDS011;4281;45.772;12.852;2022-09-01T07:23:06;0.83;;;0.80;;
8488;SDS011;4281;45.772;12.852;2022-09-01T07:25:37;2.97;;;1.17;;
8488;SDS011;4281;45.772;12.852;2022-09-01T07:28:28;0.80;;;0.80;;
8488;SDS011;4281;45.772;12.852;2022-09-01T07:31:06;2.70;;;0.90;;
8488;SDS011;4281;45.772;12.852;2022-09-01T07:33:55;0.83;;;0.70;;
8488;SDS011;4281;45.772;12.852;2022-09-01T07:36:46;1.60;;;0.90;;
8488;SDS011;4281;45.772;12.852;2022-09-01T07:39:36;0.77;;;0.77;;
8488;SDS011;4281;45.772;12.852;2022-09-01T07:42:16;2.10;;;0.80;;
8488;SDS011;4281;45.772;12.852;2022-09-01T07:45:07;0.80;;;0.80;;
8488;SDS011;4281;45.772;12.852;2022-09-01T07:47:53;0.83;;;0.70;;
8488;SDS011;4281;45.772;12.852;2022-09-01T07:50:23;1.17;;;0.80;;
8488;SDS011;4281;45.772;12.852;2022-09-01T07:53:14;1.23;;;0.80;;
8488;SDS011;4281;45.772;12.852;2022-09-01T07:55:44;0.87;;;0.87;;
8488;SDS011;4281;45.772;12.852;2022-09-01T07:58:15;3.27;;;0.83;;
8488;SDS011;4281;45.772;12.852;2022-09-01T08:00:46;0.70;;;0.70;;
8488;SDS011;4281;45.772;12.852;2022-09-01T08:03:15;0.70;;;0.70;;
8488;SDS011;4281;45.772;12.852;2022-09-01T08:05:45;0.80;;;0.80;;
8488;SDS011;4281;45.772;12.852;2022-09-01T08:08:16;1.50;;;0.80;;
8488;SDS011;4281;45.772;12.852;2022-09-01T08:10:49;1.13;;;0.77;;
8488;SDS011;4281;45.772;12.852;2022-09-01T08:13:17;1.13;;;0.90;;
8488;SDS011;4281;45.772;12.852;2022-09-01T08:15:48;0.97;;;0.80;;
8488;SDS011;4281;45.772;12.852;2022-09-01T08:18:37;1.43;;;0.70;;
8488;SDS011;4281;45.772;12.852;2022-09-01T08:21:19;0.73;;;0.70;;
8488;SDS011;4281;45.772;12.852;2022-09-01T08:23:49;2.40;;;0.83;;
8488;SDS011;4281;45.772;12.852;2022-09-01T08:26:19;0.80;;;0.80;;
8488;SDS011;4281;45.772;12.852;2022-09-01T08:28:49;0.70;;;0.70;;
8488;SDS011;4281;45.772;12.852;2022-09-01T08:31:22;0.70;;;0.70;;
8488;SDS011;4281;45.772;12.852;2022-09-01T08:33:56;0.70;;;0.70;;
8488;SDS011;4281;45.772;12.852;2022-09-01T08:36:25;1.13;;;0.80;;
8488;SDS011;4281;45.772;12.852;2022-09-01T08:38:54;0.60;;;0.60;;
8488;SDS011;4281;45.772;12.852;2022-09-01T08:41:26;0.70;;;0.70;;
8488;SDS011;4281;45.772;12.852;2022-09-01T08:44:15;1.17;;;0.80;;
8488;SDS011;4281;45.772;12.852;2022-09-01T08:46:53;0.70;;;0.70;;
8488;SDS011;4281;45.772;12.852;2022-09-01T08:49:26;0.77;;;0.60;;
8488;SDS011;4281;45.772;12.852;2022-09-01T08:51:57;1.37;;;1.00;;
8488;SDS011;4281;45.772;12.852;2022-09-01T08:54:31;0.70;;;0.70;;
8488;SDS011;4281;45.772;12.852;2022-09-01T08:57:07;1.97;;;0.80;;
8488;SDS011;4281;45.772;12.852;2022-09-01T08:59:38;0.70;;;0.70;;
8488;SDS011;4281;45.772;12.852;2022-09-01T09:02:12;1.70;;;0.60;;
8488;SDS011;4281;45.772;12.852;2022-09-01T09:04:58;0.70;;;0.70;;
8488;SDS011;4281;45.772;12.852;2022-09-01T09:07:48;1.53;;;0.70;;
8488;SDS011;4281;45.772;12.852;2022-09-01T09:10:35;0.83;;;0.60;;
8488;SDS011;4281;45.772;12.852;2022-09-01T09:13:14;0.80;;;0.80;;
8488;SDS011;4281;45.772;12.852;2022-09-01T09:15:49;1.43;;;0.90;;
8488;SDS011;4281;45.772;12.852;2022-09-01T09:18:36;0.73;;;0.70;;
8488;SDS011;4281;45.772;12.852;2022-09-01T09:21:27;1.40;;;0.83;;
8488;SDS011;4281;45.772;12.852;2022-09-01T09:24:05;0.80;;;0.80;;
8488;SDS011;4281;45.772;12.852;2022-09-01T09:26:36;0.87;;;0.80;;
8488;SDS011;4281;45.772;12.852;2022-09-01T09:29:08;1.70;;;0.73;;
8488;SDS011;4281;45.772;12.852;2022-09-01T09:31:38;1.50;;;0.70;;
8488;SDS011;4281;45.772;12.852;2022-09-01T09:37:14;2.57;;;1.00;;
8488;SDS011;4281;45.772;12.852;2022-09-01T09:40:00;0.80;;;0.80;;
8488;SDS011;4281;45.772;12.852;2022-09-01T09:42:35;1.60;;;0.90;;
8488;SDS011;4281;45.772;12.852;2022-09-01T09:45:06;0.80;;;0.80;;
8488;SDS011;4281;45.772;12.852;2022-09-01T09:47:49;3.70;;;0.83;;
8488;SDS011;4281;45.772;12.852;2022-09-01T09:50:21;0.80;;;0.80;;
8488;SDS011;4281;45.772;12.852;2022-09-01T09:52:52;1.80;;;0.90;;
8488;SDS011;4281;45.772;12.852;2022-09-01T09:55:38;2.20;;;1.10;;
8488;SDS011;4281;45.772;12.852;2022-09-01T09:58:22;1.43;;;1.00;;
8488;SDS011;4281;45.772;12.852;2022-09-01T10:01:00;1.23;;;0.90;;
8488;SDS011;4281;45.772;12.852;2022-09-01T10:03:36;3.13;;;0.90;;
8488;SDS011;4281;45.772;12.852;2022-09-01T10:06:13;1.73;;;1.00;;
8488;SDS011;4281;45.772;12.852;2022-09-01T10:08:58;1.43;;;1.07;;
8488;SDS011;4281;45.772;12.852;2022-09-01T10:11:29;2.23;;;0.90;;
8488;SDS011;4281;45.772;12.852;2022-09-01T10:14:08;0.90;;;0.90;;
8488;SDS011;4281;45.772;12.852;2022-09-01T10:17:02;1.27;;;1.10;;
8488;SDS011;4281;45.772;12.852;2022-09-01T10:19:35;0.93;;;0.93;;
8488;SDS011;4281;45.772;12.852;2022-09-01T10:22:08;1.00;;;0.90;;
8488;SDS011;4281;45.772;12.852;2022-09-01T10:24:40;1.30;;;1.20;;
8488;SDS011;4281;45.772;12.852;2022-09-01T10:27:16;2.07;;;1.87;;
8488;SDS011;4281;45.772;12.852;2022-09-01T10:29:48;3.23;;;1.77;;
8488;SDS011;4281;45.772;12.852;2022-09-01T10:32:43;2.40;;;1.80;;
8488;SDS011;4281;45.772;12.852;2022-09-01T10:35:22;1.57;;;1.47;;
8488;SDS011;4281;45.772;12.852;2022-09-01T10:37:54;1.70;;;1.60;;
8488;SDS011;4281;45.772;12.852;2022-09-01T10:40:35;1.70;;;1.57;;
8488;SDS011;4281;45.772;12.852;2022-09-01T10:43:22;1.70;;;1.60;;
8488;SDS011;4281;45.772;12.852;2022-09-01T10:55:29;1.50;;;1.40;;
8488;SDS011;4281;45.772;12.852;2022-09-01T10:58:14;2.20;;;1.40;;
8488;SDS011;4281;45.772;12.852;2022-09-01T11:01:11;1.60;;;1.40;;
8488;SDS011;4281;45.772;12.852;2022-09-01T11:04:01;1.50;;;1.40;;
8488;SDS011;4281;45.772;12.852;2022-09-01T11:13:06;2.93;;;1.73;;
8488;SDS011;4281;45.772;12.852;2022-09-01T11:15:49;2.53;;;1.50;;
8488;SDS011;4281;45.772;12.852;2022-09-01T11:18:22;1.80;;;1.47;;
8488;SDS011;4281;45.772;12.852;2022-09-01T11:20:53;2.03;;;1.53;;
8488;SDS011;4281;45.772;12.852;2022-09-01T11:23:24;2.90;;;1.37;;
8488;SDS011;4281;45.772;12.852;2022-09-01T11:25:58;1.53;;;1.43;;
8488;SDS011;4281;45.772;12.852;2022-09-01T11:28:46;2.10;;;1.47;;
8488;SDS011;4281;45.772;12.852;2022-09-01T11:31:23;1.60;;;1.50;;
8488;SDS011;4281;45.772;12.852;2022-09-01T11:34:09;3.23;;;1.33;;
8488;SDS011;4281;45.772;12.852;2022-09-01T11:36:57;1.50;;;1.40;;
8488;SDS011;4281;45.772;12.852;2022-09-01T11:39:29;3.17;;;1.60;;
8488;SDS011;4281;45.772;12.852;2022-09-01T11:42:05;1.43;;;1.30;;
8488;SDS011;4281;45.772;12.852;2022-09-01T11:44:41;2.10;;;1.57;;
8488;SDS011;4281;45.772;12.852;2022-09-01T11:47:16;1.43;;;1.33;;
8488;SDS011;4281;45.772;12.852;2022-09-01T11:49:48;1.63;;;1.53;;
8488;SDS011;4281;45.772;12.852;2022-09-01T11:52:19;2.10;;;1.40;;
8488;SDS011;4281;45.772;12.852;2022-09-01T11:54:49;3.30;;;1.37;;
8488;SDS011;4281;45.772;12.852;2022-09-01T11:57:19;1.87;;;1.37;;
8488;SDS011;4281;45.772;12.852;2022-09-01T11:59:58;2.10;;;1.40;;
8488;SDS011;4281;45.772;12.852;2022-09-01T12:02:29;1.53;;;1.33;;
8488;SDS011;4281;45.772;12.852;2022-09-01T12:05:03;2.00;;;1.33;;
8488;SDS011;4281;45.772;12.852;2022-09-01T12:07:50;1.40;;;1.30;;
8488;SDS011;4281;45.772;12.852;2022-09-01T12:10:19;1.70;;;1.33;;
8488;SDS011;4281;45.772;12.852;2022-09-01T12:12:59;2.07;;;1.30;;
8488;SDS011;4281;45.772;12.852;2022-09-01T12:15:31;2.70;;;1.40;;
8488;SDS011;4281;45.772;12.852;2022-09-01T12:18:09;1.83;;;1.20;;
8488;SDS011;4281;45.772;12.852;2022-09-01T12:20:40;1.53;;;1.23;;
8488;SDS011;4281;45.772;12.852;2022-09-01T12:23:15;1.40;;;1.30;;
8488;SDS011;4281;45.772;12.852;2022-09-01T12:25:46;1.50;;;1.40;;
8488;SDS011;4281;45.772;12.852;2022-09-01T12:28:15;2.17;;;1.43;;
8488;SDS011;4281;45.772;12.852;2022-09-01T12:30:45;3.63;;;1.40;;
8488;SDS011;4281;45.772;12.852;2022-09-01T12:33:13;1.43;;;1.30;;
8488;SDS011;4281;45.772;12.852;2022-09-01T12:35:49;1.50;;;1.30;;
8488;SDS011;4281;45.772;12.852;2022-09-01T12:38:27;2.07;;;1.50;;
8488;SDS011;4281;45.772;12.852;2022-09-01T12:40:56;4.03;;;1.30;;
8488;SDS011;4281;45.772;12.852;2022-09-01T12:43:26;3.63;;;1.40;;
8488;SDS011;4281;45.772;12.852;2022-09-01T12:46:01;3.13;;;1.47;;
8488;SDS011;4281;45.772;12.852;2022-09-01T12:48:30;1.60;;;1.30;;
8488;SDS011;4281;45.772;12.852;2022-09-01T12:51:00;4.60;;;1.50;;
8488;SDS011;4281;45.772;12.852;2022-09-01T12:53:31;1.93;;;1.30;;
8488;SDS011;4281;45.772;12.852;2022-09-01T12:56:19;2.20;;;1.40;;
8488;SDS011;4281;45.772;12.852;2022-09-01T12:59:03;1.83;;;1.40;;
8488;SDS011;4281;45.772;12.852;2022-09-01T13:01:43;1.93;;;1.40;;
8488;SDS011;4281;45.772;12.852;2022-09-01T13:04:22;2.10;;;1.30;;
8488;SDS011;4281;45.772;12.852;2022-09-01T13:06:54;1.73;;;1.40;;
8488;SDS011;4281;45.772;12.852;2022-09-01T13:09:27;2.60;;;1.30;;
8488;SDS011;4281;45.772;12.852;2022-09-01T13:12:08;3.30;;;1.30;;
8488;SDS011;4281;45.772;12.852;2022-09-01T13:14:38;1.97;;;1.20;;
8488;SDS011;4281;45.772;12.852;2022-09-01T13:17:07;2.63;;;1.30;;
8488;SDS011;4281;45.772;12.852;2022-09-01T13:19:40;4.70;;;1.30;;
8488;SDS011;4281;45.772;12.852;2022-09-01T13:22:09;1.40;;;1.30;;
8488;SDS011;4281;45.772;12.852;2022-09-01T13:24:37;2.73;;;1.40;;
8488;SDS011;4281;45.772;12.852;2022-09-01T13:27:07;2.97;;;1.20;;
8488;SDS011;4281;45.772;12.852;2022-09-01T13:29:52;3.50;;;1.50;;
8488;SDS011;4281;45.772;12.852;2022-09-01T13:32:22;1.57;;;1.47;;
8488;SDS011;4281;45.772;12.852;2022-09-01T13:34:52;2.77;;;1.37;;
8488;SDS011;4281;45.772;12.852;2022-09-01T13:37:21;3.43;;;1.43;;
8488;SDS011;4281;45.772;12.852;2022-09-01T13:39:49;3.47;;;1.37;;
8488;SDS011;4281;45.772;12.852;2022-09-01T13:42:18;2.23;;;1.40;;
8488;SDS011;4281;45.772;12.852;2022-09-01T13:44:50;3.13;;;1.37;;
8488;SDS011;4281;45.772;12.852;2022-09-01T13:47:22;5.03;;;1.40;;
8488;SDS011;4281;45.772;12.852;2022-09-01T13:49:55;5.23;;;1.60;;
8488;SDS011;4281;45.772;12.852;2022-09-01T13:52:35;1.77;;;1.30;;
8488;SDS011;4281;45.772;12.852;2022-09-01T13:55:05;2.00;;;1.77;;
8488;SDS011;4281;45.772;12.852;2022-09-01T13:57:36;1.47;;;1.30;;
8488;SDS011;4281;45.772;12.852;2022-09-01T14:00:06;4.50;;;1.30;;
8488;SDS011;4281;45.772;12.852;2022-09-01T14:02:39;2.87;;;1.30;;
8488;SDS011;4281;45.772;12.852;2022-09-01T14:05:15;3.07;;;1.30;;
8488;SDS011;4281;45.772;12.852;2022-09-01T14:07:44;3.87;;;1.60;;
8488;SDS011;4281;45.772;12.852;2022-09-01T14:10:12;2.00;;;1.33;;
8488;SDS011;4281;45.772;12.852;2022-09-01T14:12:41;5.97;;;1.53;;
8488;SDS011;4281;45.772;12.852;2022-09-01T14:15:11;3.43;;;1.43;;
8488;SDS011;4281;45.772;12.852;2022-09-01T14:17:50;2.13;;;1.57;;
8488;SDS011;4281;45.772;12.852;2022-09-01T14:20:22;1.63;;;1.30;;
8488;SDS011;4281;45.772;12.852;2022-09-01T14:22:52;1.37;;;1.27;;
8488;SDS011;4281;45.772;12.852;2022-09-01T14:25:21;2.70;;;1.40;;
8488;SDS011;4281;45.772;12.852;2022-09-01T14:27:50;3.83;;;1.70;;
8488;SDS011;4281;45.772;12.852;2022-09-01T14:30:20;8.90;;;1.90;;
8488;SDS011;4281;45.772;12.852;2022-09-01T14:32:58;3.43;;;1.50;;
8488;SDS011;4281;45.772;12.852;2022-09-01T14:35:27;4.57;;;1.73;;
8488;SDS011;4281;45.772;12.852;2022-09-01T14:38:00;2.13;;;1.30;;
8488;SDS011;4281;45.772;12.852;2022-09-01T14:40:30;2.47;;;1.50;;
8488;SDS011;4281;45.772;12.852;2022-09-01T14:43:01;10.80;;;2.03;;
8488;SDS011;4281;45.772;12.852;2022-09-01T14:45:31;4.83;;;1.70;;
8488;SDS011;4281;45.772;12.852;2022-09-01T14:48:01;3.10;;;1.50;;
8488;SDS011;4281;45.772;12.852;2022-09-01T14:50:30;2.27;;;1.50;;
8488;SDS011;4281;45.772;12.852;2022-09-01T14:53:00;2.80;;;1.50;;
8488;SDS011;4281;45.772;12.852;2022-09-01T14:55:29;2.10;;;1.50;;
8488;SDS011;4281;45.772;12.852;2022-09-01T14:57:59;2.77;;;1.60;;
8488;SDS011;4281;45.772;12.852;2022-09-01T15:00:27;2.93;;;1.40;;
8488;SDS011;4281;45.772;12.852;2022-09-01T15:02:57;1.70;;;1.60;;
8488;SDS011;4281;45.772;12.852;2022-09-01T15:05:27;4.10;;;1.60;;
8488;SDS011;4281;45.772;12.852;2022-09-01T15:08:05;4.67;;;1.33;;
8488;SDS011;4281;45.772;12.852;2022-09-01T15:10:39;4.30;;;1.53;;
8488;SDS011;4281;45.772;12.852;2022-09-01T15:13:07;4.90;;;1.70;;
8488;SDS011;4281;45.772;12.852;2022-09-01T15:15:36;4.93;;;1.80;;
8488;SDS011;4281;45.772;12.852;2022-09-01T15:18:05;4.17;;;1.67;;
8488;SDS011;4281;45.772;12.852;2022-09-01T15:20:38;3.10;;;1.70;;
8488;SDS011;4281;45.772;12.852;2022-09-01T15:23:17;2.93;;;1.50;;
8488;SDS011;4281;45.772;12.852;2022-09-01T15:25:47;6.27;;;1.60;;
8488;SDS011;4281;45.772;12.852;2022-09-01T15:28:17;6.27;;;1.70;;
8488;SDS011;4281;45.772;12.852;2022-09-01T15:30:46;3.37;;;1.70;;
8488;SDS011;4281;45.772;12.852;2022-09-01T15:33:19;4.20;;;1.50;;
8488;SDS011;4281;45.772;12.852;2022-09-01T15:35:49;4.37;;;1.50;;
8488;SDS011;4281;45.772;12.852;2022-09-01T15:38:19;3.00;;;1.70;;
8488;SDS011;4281;45.772;12.852;2022-09-01T15:40:53;6.03;;;1.87;;
8488;SDS011;4281;45.772;12.852;2022-09-01T15:43:24;2.43;;;1.57;;
8488;SDS011;4281;45.772;12.852;2022-09-01T15:45:53;4.20;;;1.50;;
8488;SDS011;4281;45.772;12.852;2022-09-01T15:48:24;3.80;;;1.60;;
8488;SDS011;4281;45.772;12.852;2022-09-01T15:50:56;4.57;;;1.77;;
8488;SDS011;4281;45.772;12.852;2022-09-01T15:53:43;5.27;;;1.97;;
8488;SDS011;4281;45.772;12.852;2022-09-01T15:56:11;3.93;;;1.93;;
8488;SDS011;4281;45.772;12.852;2022-09-01T15:58:40;2.57;;;1.73;;
8488;SDS011;4281;45.772;12.852;2022-09-01T16:01:27;5.63;;;1.87;;